sensor_id;sensor_type;location;lat;lon;timestamp;pressure;altitude;pressure_sealevel;temperature;humidity
55410;BME280;41279;43.546;16.426;2023-04-07T00:02:24;52458.38;;;-146.77;45.38
55410;BME280;41279;43.546;16.426;2023-04-07T00:04:49;52460.38;;;-146.77;45.12
55410;BME280;41279;43.546;16.426;2023-04-07T00:07:15;52426.34;;;-146.77;50.33
55410;BME280;41279;43.546;16.426;2023-04-07T00:09:40;52458.38;;;-146.77;58.95
55410;BME280;41279;43.546;16.426;2023-04-07T00:12:06;52434.34;;;-146.77;60.92
55410;BME280;41279;43.546;16.426;2023-04-07T00:14:31;52458.38;;;-146.77;52.25
55410;BME280;41279;43.546;16.426;2023-04-07T00:16:57;52446.34;;;-146.77;52.39
55410;BME280;41279;43.546;16.426;2023-04-07T00:19:22;52426.34;;;-146.77;51.65
55410;BME280;41279;43.546;16.426;2023-04-07T00:21:48;52454.34;;;-146.77;52.28
55410;BME280;41279;43.546;16.426;2023-04-07T00:24:13;52452.34;;;-146.77;53.05
55410;BME280;41279;43.546;16.426;2023-04-07T00:26:39;52452.34;;;-146.77;54.32
55410;BME280;41279;43.546;16.426;2023-04-07T00:29:12;52432.34;;;-146.77;54.86
55410;BME280;41279;43.546;16.426;2023-04-07T00:31:38;52428.34;;;-146.77;55.43
55410;BME280;41279;43.546;16.426;2023-04-07T00:34:03;52464.38;;;-146.77;54.96
55410;BME280;41279;43.546;16.426;2023-04-07T00:36:29;52436.34;;;-146.77;54.14
55410;BME280;41279;43.546;16.426;2023-04-07T00:38:56;52440.34;;;-146.77;54.56
55410;BME280;41279;43.546;16.426;2023-04-07T00:41:22;52440.34;;;-146.77;51.73
55410;BME280;41279;43.546;16.426;2023-04-07T00:43:49;52434.34;;;-146.77;52.21
55410;BME280;41279;43.546;16.426;2023-04-07T00:46:14;52454.34;;;-146.77;54.38
55410;BME280;41279;43.546;16.426;2023-04-07T00:48:40;52466.38;;;-146.77;54.31
55410;BME280;41279;43.546;16.426;2023-04-07T00:51:05;52452.34;;;-146.77;54.43
55410;BME280;41279;43.546;16.426;2023-04-07T00:53:31;52432.34;;;-146.77;54.02
55410;BME280;41279;43.546;16.426;2023-04-07T00:55:57;52450.34;;;-146.77;53.76
55410;BME280;41279;43.546;16.426;2023-04-07T00:58:22;52434.34;;;-146.77;54.88
55410;BME280;41279;43.546;16.426;2023-04-07T01:01:22;52442.34;;;-146.77;55.22
55410;BME280;41279;43.546;16.426;2023-04-07T01:06:20;52422.31;;;-146.77;54.66
55410;BME280;41279;43.546;16.426;2023-04-07T01:14:17;52442.34;;;-146.77;54.99
55410;BME280;41279;43.546;16.426;2023-04-07T01:19:15;52436.34;;;-146.77;55.60
55410;BME280;41279;43.546;16.426;2023-04-07T01:21:48;52428.34;;;-146.77;58.78
55410;BME280;41279;43.546;16.426;2023-04-07T01:27:20;52462.38;;;-146.77;62.39
55410;BME280;41279;43.546;16.426;2023-04-07T01:29:46;52438.34;;;-146.77;59.30
55410;BME280;41279;43.546;16.426;2023-04-07T01:32:17;52438.34;;;-146.77;63.11
55410;BME280;41279;43.546;16.426;2023-04-07T01:34:46;52460.38;;;-146.77;61.61
55410;BME280;41279;43.546;16.426;2023-04-07T01:37:12;52412.31;;;-146.77;63.06
55410;BME280;41279;43.546;16.426;2023-04-07T01:39:38;52454.34;;;-146.77;64.55
55410;BME280;41279;43.546;16.426;2023-04-07T01:42:05;52430.34;;;-146.77;62.37
55410;BME280;41279;43.546;16.426;2023-04-07T01:44:31;52454.34;;;-146.77;63.71
55410;BME280;41279;43.546;16.426;2023-04-07T01:46:58;52444.34;;;-146.77;66.25
55410;BME280;41279;43.546;16.426;2023-04-07T01:49:24;52462.38;;;-146.77;67.46
55410;BME280;41279;43.546;16.426;2023-04-07T01:51:50;52452.34;;;-146.77;67.65
55410;BME280;41279;43.546;16.426;2023-04-07T01:54:17;52448.34;;;-146.77;66.16
55410;BME280;41279;43.546;16.426;2023-04-07T01:56:43;52460.38;;;-146.77;64.30
55410;BME280;41279;43.546;16.426;2023-04-07T01:59:09;52438.34;;;-146.77;68.26
55410;BME280;41279;43.546;16.426;2023-04-07T02:01:41;52438.34;;;-146.77;64.18
55410;BME280;41279;43.546;16.426;2023-04-07T02:06:42;52438.34;;;-146.77;64.14
55410;BME280;41279;43.546;16.426;2023-04-07T02:09:10;52436.34;;;-146.77;63.63
55410;BME280;41279;43.546;16.426;2023-04-07T02:11:39;52452.34;;;-146.77;64.27
55410;BME280;41279;43.546;16.426;2023-04-07T02:14:07;52470.38;;;-146.77;62.10
55410;BME280;41279;43.546;16.426;2023-04-07T02:16:34;52422.31;;;-146.77;60.79
55410;BME280;41279;43.546;16.426;2023-04-07T02:19:00;52462.38;;;-146.77;60.71
55410;BME280;41279;43.546;16.426;2023-04-07T02:21:27;52462.38;;;-146.77;60.76
55410;BME280;41279;43.546;16.426;2023-04-07T02:23:55;52458.38;;;-146.77;61.01
55410;BME280;41279;43.546;16.426;2023-04-07T02:26:20;52454.34;;;-146.77;61.69
55410;BME280;41279;43.546;16.426;2023-04-07T02:28:46;52458.38;;;-146.77;62.36
55410;BME280;41279;43.546;16.426;2023-04-07T02:31:11;52430.34;;;-146.77;65.00
55410;BME280;41279;43.546;16.426;2023-04-07T02:33:38;52434.34;;;-146.77;72.26
55410;BME280;41279;43.546;16.426;2023-04-07T02:36:03;52428.34;;;-146.77;71.80
55410;BME280;41279;43.546;16.426;2023-04-07T02:38:29;52444.34;;;-146.77;78.73
55410;BME280;41279;43.546;16.426;2023-04-07T02:40:54;52456.38;;;-146.77;78.78
55410;BME280;41279;43.546;16.426;2023-04-07T02:43:20;52454.34;;;-146.77;73.90
55410;BME280;41279;43.546;16.426;2023-04-07T02:45:45;52460.38;;;-146.77;73.04
55410;BME280;41279;43.546;16.426;2023-04-07T02:48:11;52414.31;;;-146.77;72.58
55410;BME280;41279;43.546;16.426;2023-04-07T02:50:36;52420.31;;;-146.77;73.04
55410;BME280;41279;43.546;16.426;2023-04-07T02:53:02;52454.34;;;-146.77;69.22
55410;BME280;41279;43.546;16.426;2023-04-07T02:55:27;52444.34;;;-146.77;65.08
55410;BME280;41279;43.546;16.426;2023-04-07T02:57:52;52448.34;;;-146.77;62.92
55410;BME280;41279;43.546;16.426;2023-04-07T03:00:18;52434.34;;;-146.77;62.70
55410;BME280;41279;43.546;16.426;2023-04-07T03:02:43;52452.34;;;-146.77;62.49
55410;BME280;41279;43.546;16.426;2023-04-07T03:05:09;52466.38;;;-146.77;59.72
55410;BME280;41279;43.546;16.426;2023-04-07T03:07:34;52446.34;;;-146.77;60.27
55410;BME280;41279;43.546;16.426;2023-04-07T03:10:00;52446.34;;;-146.77;65.61
55410;BME280;41279;43.546;16.426;2023-04-07T03:12:25;52434.34;;;-146.77;63.45
55410;BME280;41279;43.546;16.426;2023-04-07T03:14:51;52466.38;;;-146.77;67.02
55410;BME280;41279;43.546;16.426;2023-04-07T03:17:16;52454.34;;;-146.77;68.41
55410;BME280;41279;43.546;16.426;2023-04-07T03:19:42;52442.34;;;-146.77;68.35
55410;BME280;41279;43.546;16.426;2023-04-07T03:22:07;52456.38;;;-146.77;69.37
55410;BME280;41279;43.546;16.426;2023-04-07T03:24:33;52438.34;;;-146.77;70.72
55410;BME280;41279;43.546;16.426;2023-04-07T03:26:58;52448.34;;;-146.77;70.10
55410;BME280;41279;43.546;16.426;2023-04-07T03:29:23;52470.38;;;-146.77;70.03
55410;BME280;41279;43.546;16.426;2023-04-07T03:31:49;52438.34;;;-146.77;69.41
55410;BME280;41279;43.546;16.426;2023-04-07T03:34:14;52430.34;;;-146.77;71.57
55410;BME280;41279;43.546;16.426;2023-04-07T03:36:40;52448.34;;;-146.77;70.20
55410;BME280;41279;43.546;16.426;2023-04-07T03:39:05;52444.34;;;-146.77;70.64
55410;BME280;41279;43.546;16.426;2023-04-07T03:41:31;52434.34;;;-146.77;68.94
55410;BME280;41279;43.546;16.426;2023-04-07T03:43:56;52434.34;;;-146.77;65.30
55410;BME280;41279;43.546;16.426;2023-04-07T03:46:22;52462.38;;;-146.77;65.83
55410;BME280;41279;43.546;16.426;2023-04-07T03:48:51;52442.34;;;-146.77;72.73
55410;BME280;41279;43.546;16.426;2023-04-07T03:51:16;52442.34;;;-146.77;85.79
55410;BME280;41279;43.546;16.426;2023-04-07T03:53:42;52430.34;;;-146.77;74.62
55410;BME280;41279;43.546;16.426;2023-04-07T03:56:08;52420.31;;;-146.77;68.46
55410;BME280;41279;43.546;16.426;2023-04-07T03:58:33;52408.31;;;-146.77;67.96
55410;BME280;41279;43.546;16.426;2023-04-07T04:00:59;52434.34;;;-146.77;70.09
55410;BME280;41279;43.546;16.426;2023-04-07T04:03:25;52456.38;;;-146.77;78.93
55410;BME280;41279;43.546;16.426;2023-04-07T04:05:50;52460.38;;;-146.77;97.17
55410;BME280;41279;43.546;16.426;2023-04-07T04:08:16;52544.44;;;-146.77;100.00
55410;BME280;41279;43.546;16.426;2023-04-07T04:10:41;52528.44;;;-146.77;100.00
55410;BME280;41279;43.546;16.426;2023-04-07T04:13:07;52484.38;;;-146.77;99.05
55410;BME280;41279;43.546;16.426;2023-04-07T04:15:32;52450.34;;;-146.77;93.03
55410;BME280;41279;43.546;16.426;2023-04-07T04:17:58;52474.38;;;-146.77;97.80
55410;BME280;41279;43.546;16.426;2023-04-07T04:20:23;52424.31;;;-146.77;86.88
55410;BME280;41279;43.546;16.426;2023-04-07T04:22:49;52438.34;;;-146.77;83.62
55410;BME280;41279;43.546;16.426;2023-04-07T04:25:16;52448.34;;;-146.77;77.56
55410;BME280;41279;43.546;16.426;2023-04-07T04:27:41;52444.34;;;-146.77;75.36
55410;BME280;41279;43.546;16.426;2023-04-07T04:30:07;52430.34;;;-146.77;72.93
55410;BME280;41279;43.546;16.426;2023-04-07T04:32:32;52434.34;;;-146.77;86.52
55410;BME280;41279;43.546;16.426;2023-04-07T04:34:58;52532.44;;;-146.77;100.00
55410;BME280;41279;43.546;16.426;2023-04-07T04:37:24;52486.41;;;-146.77;100.00
55410;BME280;41279;43.546;16.426;2023-04-07T04:39:50;52540.44;;;-146.77;100.00
55410;BME280;41279;43.546;16.426;2023-04-07T04:42:15;52534.44;;;-146.77;100.00
55410;BME280;41279;43.546;16.426;2023-04-07T04:44:41;52480.38;;;-146.77;100.00
55410;BME280;41279;43.546;16.426;2023-04-07T04:47:07;52438.34;;;-146.77;94.22
55410;BME280;41279;43.546;16.426;2023-04-07T04:49:32;52452.34;;;-146.77;90.74
55410;BME280;41279;43.546;16.426;2023-04-07T04:51:58;52458.38;;;-146.77;90.20
55410;BME280;41279;43.546;16.426;2023-04-07T04:54:23;52446.34;;;-146.77;91.04
55410;BME280;41279;43.546;16.426;2023-04-07T04:56:49;52430.34;;;-146.77;75.98
55410;BME280;41279;43.546;16.426;2023-04-07T04:59:14;52414.31;;;-146.77;68.15
55410;BME280;41279;43.546;16.426;2023-04-07T05:01:40;52390.28;;;-146.77;63.31
55410;BME280;41279;43.546;16.426;2023-04-07T05:04:05;52408.31;;;-146.77;61.34
55410;BME280;41279;43.546;16.426;2023-04-07T05:06:30;52414.31;;;-146.77;59.09
55410;BME280;41279;43.546;16.426;2023-04-07T05:08:56;52368.28;;;-146.77;58.35
55410;BME280;41279;43.546;16.426;2023-04-07T05:11:22;52400.31;;;-146.77;57.09
55410;BME280;41279;43.546;16.426;2023-04-07T05:13:47;52402.31;;;-146.77;72.71
55410;BME280;41279;43.546;16.426;2023-04-07T05:16:13;52406.31;;;-146.77;61.84
55410;BME280;41279;43.546;16.426;2023-04-07T05:18:38;52414.31;;;-146.77;61.17
55410;BME280;41279;43.546;16.426;2023-04-07T05:21:03;52382.28;;;-146.77;67.28
55410;BME280;41279;43.546;16.426;2023-04-07T05:23:29;52404.31;;;-146.77;67.87
55410;BME280;41279;43.546;16.426;2023-04-07T05:25:55;52380.28;;;-146.77;68.50
55410;BME280;41279;43.546;16.426;2023-04-07T05:28:21;52392.28;;;-146.77;67.78
55410;BME280;41279;43.546;16.426;2023-04-07T05:30:47;52378.28;;;-146.77;70.79
55410;BME280;41279;43.546;16.426;2023-04-07T05:33:12;52412.31;;;-146.77;71.80
55410;BME280;41279;43.546;16.426;2023-04-07T05:35:38;52410.31;;;-146.77;67.78
55410;BME280;41279;43.546;16.426;2023-04-07T05:38:03;52378.28;;;-146.77;64.99
55410;BME280;41279;43.546;16.426;2023-04-07T05:40:28;52416.31;;;-146.77;64.49
55410;BME280;41279;43.546;16.426;2023-04-07T05:42:55;52392.28;;;-146.77;63.02
55410;BME280;41279;43.546;16.426;2023-04-07T05:45:20;52390.28;;;-146.77;62.98
55410;BME280;41279;43.546;16.426;2023-04-07T05:47:46;52398.31;;;-146.77;62.01
55410;BME280;41279;43.546;16.426;2023-04-07T05:50:16;52386.28;;;-146.77;64.24
55410;BME280;41279;43.546;16.426;2023-04-07T05:52:41;52390.28;;;-146.77;65.14
55410;BME280;41279;43.546;16.426;2023-04-07T05:55:07;52392.28;;;-146.77;62.89
55410;BME280;41279;43.546;16.426;2023-04-07T05:57:32;52414.31;;;-146.77;58.67
55410;BME280;41279;43.546;16.426;2023-04-07T05:59:59;52390.28;;;-146.77;50.90
55410;BME280;41279;43.546;16.426;2023-04-07T06:02:24;52392.28;;;-146.77;57.75
55410;BME280;41279;43.546;16.426;2023-04-07T06:04:50;52406.31;;;-146.77;52.40
55410;BME280;41279;43.546;16.426;2023-04-07T06:07:15;52418.31;;;-146.77;50.40
55410;BME280;41279;43.546;16.426;2023-04-07T06:09:41;52422.31;;;-146.77;50.26
55410;BME280;41279;43.546;16.426;2023-04-07T06:12:07;52426.34;;;-146.77;52.73
55410;BME280;41279;43.546;16.426;2023-04-07T06:14:33;52448.34;;;-146.77;50.73
55410;BME280;41279;43.546;16.426;2023-04-07T06:16:59;52434.34;;;-146.77;49.16
55410;BME280;41279;43.546;16.426;2023-04-07T06:19:25;52402.31;;;-146.77;48.04
55410;BME280;41279;43.546;16.426;2023-04-07T06:21:51;52426.34;;;-146.77;51.37
55410;BME280;41279;43.546;16.426;2023-04-07T06:24:17;52412.31;;;-146.77;51.66
55410;BME280;41279;43.546;16.426;2023-04-07T06:26:43;52400.31;;;-146.77;48.74
55410;BME280;41279;43.546;16.426;2023-04-07T06:29:09;52408.31;;;-146.77;45.54
55410;BME280;41279;43.546;16.426;2023-04-07T06:31:34;52410.31;;;-146.77;42.53
55410;BME280;41279;43.546;16.426;2023-04-07T06:34:00;52412.31;;;-146.77;51.48
55410;BME280;41279;43.546;16.426;2023-04-07T06:36:32;52438.34;;;-146.77;52.71
55410;BME280;41279;43.546;16.426;2023-04-07T06:38:58;52434.34;;;-146.77;49.84
55410;BME280;41279;43.546;16.426;2023-04-07T06:41:24;52420.31;;;-146.77;48.10
55410;BME280;41279;43.546;16.426;2023-04-07T06:43:50;52440.34;;;-146.77;46.08
55410;BME280;41279;43.546;16.426;2023-04-07T06:46:16;52418.31;;;-146.77;46.91
55410;BME280;41279;43.546;16.426;2023-04-07T06:48:41;52420.31;;;-146.77;47.97
55410;BME280;41279;43.546;16.426;2023-04-07T06:51:07;52406.31;;;-146.77;46.05
55410;BME280;41279;43.546;16.426;2023-04-07T06:53:32;52446.34;;;-146.77;47.07
55410;BME280;41279;43.546;16.426;2023-04-07T06:56:05;52414.31;;;-146.77;47.63
55410;BME280;41279;43.546;16.426;2023-04-07T06:58:31;52434.34;;;-146.77;48.11
55410;BME280;41279;43.546;16.426;2023-04-07T07:00:57;52404.31;;;-146.77;52.39
55410;BME280;41279;43.546;16.426;2023-04-07T07:03:29;52406.31;;;-146.77;49.78
55410;BME280;41279;43.546;16.426;2023-04-07T07:06:04;52428.34;;;-146.77;48.75
55410;BME280;41279;43.546;16.426;2023-04-07T07:08:30;52392.28;;;-146.77;50.13
55410;BME280;41279;43.546;16.426;2023-04-07T07:10:56;52410.31;;;-146.77;53.60
55410;BME280;41279;43.546;16.426;2023-04-07T07:13:23;52416.31;;;-146.77;49.62
55410;BME280;41279;43.546;16.426;2023-04-07T07:15:49;52390.28;;;-146.77;52.65
55410;BME280;41279;43.546;16.426;2023-04-07T07:18:16;52430.34;;;-146.77;49.99
55410;BME280;41279;43.546;16.426;2023-04-07T07:20:41;52430.34;;;-146.77;51.91
55410;BME280;41279;43.546;16.426;2023-04-07T07:23:07;52450.34;;;-146.77;47.74
55410;BME280;41279;43.546;16.426;2023-04-07T07:25:33;52398.31;;;-146.77;46.38
55410;BME280;41279;43.546;16.426;2023-04-07T07:27:58;52440.34;;;-146.77;44.20
55410;BME280;41279;43.546;16.426;2023-04-07T07:30:24;52452.34;;;-146.77;43.35
55410;BME280;41279;43.546;16.426;2023-04-07T07:32:50;52470.38;;;-146.77;42.61
55410;BME280;41279;43.546;16.426;2023-04-07T07:35:18;52446.34;;;-146.77;41.61
55410;BME280;41279;43.546;16.426;2023-04-07T07:37:44;52444.34;;;-146.77;39.95
55410;BME280;41279;43.546;16.426;2023-04-07T07:40:10;52456.38;;;-146.77;41.07
55410;BME280;41279;43.546;16.426;2023-04-07T07:42:36;52484.38;;;-146.77;38.14
55410;BME280;41279;43.546;16.426;2023-04-07T07:45:02;52462.38;;;-146.77;40.61
55410;BME280;41279;43.546;16.426;2023-04-07T07:47:27;52466.38;;;-146.77;45.57
55410;BME280;41279;43.546;16.426;2023-04-07T07:49:53;52432.34;;;-146.77;47.54
55410;BME280;41279;43.546;16.426;2023-04-07T07:52:18;52438.34;;;-146.77;47.15
55410;BME280;41279;43.546;16.426;2023-04-07T07:54:45;52454.34;;;-146.77;47.38
55410;BME280;41279;43.546;16.426;2023-04-07T07:57:11;52474.38;;;-146.77;46.69
55410;BME280;41279;43.546;16.426;2023-04-07T07:59:37;52476.38;;;-146.77;49.01
55410;BME280;41279;43.546;16.426;2023-04-07T08:02:05;52490.41;;;-146.77;46.37
55410;BME280;41279;43.546;16.426;2023-04-07T08:04:30;52468.38;;;-146.77;44.45
55410;BME280;41279;43.546;16.426;2023-04-07T08:06:56;52502.41;;;-146.77;43.89
55410;BME280;41279;43.546;16.426;2023-04-07T08:09:22;52458.38;;;-146.77;42.94
55410;BME280;41279;43.546;16.426;2023-04-07T08:11:48;52436.34;;;-146.77;42.28
55410;BME280;41279;43.546;16.426;2023-04-07T08:14:14;52456.38;;;-146.77;45.51
55410;BME280;41279;43.546;16.426;2023-04-07T08:16:40;52452.34;;;-146.77;43.76
55410;BME280;41279;43.546;16.426;2023-04-07T08:19:06;52420.31;;;-146.77;45.29
55410;BME280;41279;43.546;16.426;2023-04-07T08:21:32;52428.34;;;-146.77;45.43
55410;BME280;41279;43.546;16.426;2023-04-07T08:23:57;52458.38;;;-146.77;47.69
55410;BME280;41279;43.546;16.426;2023-04-07T08:26:23;52446.34;;;-146.77;47.59
55410;BME280;41279;43.546;16.426;2023-04-07T08:28:49;52438.34;;;-146.77;48.28
55410;BME280;41279;43.546;16.426;2023-04-07T08:31:17;52456.38;;;-146.77;49.70
55410;BME280;41279;43.546;16.426;2023-04-07T08:33:43;52438.34;;;-146.77;53.26
55410;BME280;41279;43.546;16.426;2023-04-07T08:36:09;52454.34;;;-146.77;53.17
55410;BME280;41279;43.546;16.426;2023-04-07T08:38:35;52444.34;;;-146.77;54.85
55410;BME280;41279;43.546;16.426;2023-04-07T08:41:13;52442.34;;;-146.77;57.71
55410;BME280;41279;43.546;16.426;2023-04-07T08:43:43;52452.34;;;-146.77;56.45
55410;BME280;41279;43.546;16.426;2023-04-07T08:46:11;52454.34;;;-146.77;59.12
55410;BME280;41279;43.546;16.426;2023-04-07T08:48:38;52444.34;;;-146.77;62.18
55410;BME280;41279;43.546;16.426;2023-04-07T08:51:07;52416.31;;;-146.77;60.30
55410;BME280;41279;43.546;16.426;2023-04-07T08:53:40;52464.38;;;-146.77;62.10
55410;BME280;41279;43.546;16.426;2023-04-07T08:56:08;52442.34;;;-146.77;60.16
55410;BME280;41279;43.546;16.426;2023-04-07T08:58:36;52436.34;;;-146.77;62.87
55410;BME280;41279;43.546;16.426;2023-04-07T09:01:08;52450.34;;;-146.77;59.42
55410;BME280;41279;43.546;16.426;2023-04-07T09:03:35;52446.34;;;-146.77;61.27
55410;BME280;41279;43.546;16.426;2023-04-07T09:06:01;52420.31;;;-146.77;54.99
55410;BME280;41279;43.546;16.426;2023-04-07T09:08:27;52440.34;;;-146.77;56.13
55410;BME280;41279;43.546;16.426;2023-04-07T09:10:53;52458.38;;;-146.77;52.63
55410;BME280;41279;43.546;16.426;2023-04-07T09:13:18;52424.31;;;-146.77;53.78
55410;BME280;41279;43.546;16.426;2023-04-07T09:15:44;52452.34;;;-146.77;52.45
55410;BME280;41279;43.546;16.426;2023-04-07T09:18:10;52460.38;;;-146.77;51.68
55410;BME280;41279;43.546;16.426;2023-04-07T09:20:58;52456.38;;;-146.77;53.55
55410;BME280;41279;43.546;16.426;2023-04-07T09:25:56;52476.38;;;-146.77;49.44
55410;BME280;41279;43.546;16.426;2023-04-07T09:28:24;52438.34;;;-146.77;49.51
55410;BME280;41279;43.546;16.426;2023-04-07T09:30:54;52466.38;;;-146.77;49.16
55410;BME280;41279;43.546;16.426;2023-04-07T09:33:29;52436.34;;;-146.77;50.68
55410;BME280;41279;43.546;16.426;2023-04-07T09:35:54;52436.34;;;-146.77;57.91
55410;BME280;41279;43.546;16.426;2023-04-07T09:38:21;52428.34;;;-146.77;55.36
55410;BME280;41279;43.546;16.426;2023-04-07T09:40:46;52456.38;;;-146.77;64.21
55410;BME280;41279;43.546;16.426;2023-04-07T09:43:18;52418.31;;;-146.77;60.14
55410;BME280;41279;43.546;16.426;2023-04-07T09:45:44;52442.34;;;-146.77;62.01
55410;BME280;41279;43.546;16.426;2023-04-07T09:48:20;52422.31;;;-146.77;59.39
55410;BME280;41279;43.546;16.426;2023-04-07T09:50:46;52440.34;;;-146.77;56.01
55410;BME280;41279;43.546;16.426;2023-04-07T09:53:16;52444.34;;;-146.77;54.00
55410;BME280;41279;43.546;16.426;2023-04-07T09:55:43;52460.38;;;-146.77;49.07
55410;BME280;41279;43.546;16.426;2023-04-07T09:58:12;52454.34;;;-146.77;48.78
55410;BME280;41279;43.546;16.426;2023-04-07T10:00:39;52460.38;;;-146.77;46.91
55410;BME280;41279;43.546;16.426;2023-04-07T10:03:18;52458.38;;;-146.77;47.74
55410;BME280;41279;43.546;16.426;2023-04-07T10:05:44;52454.34;;;-146.77;49.61
55410;BME280;41279;43.546;16.426;2023-04-07T10:08:11;52452.34;;;-146.77;50.37
55410;BME280;41279;43.546;16.426;2023-04-07T10:10:40;52434.34;;;-146.77;48.76
55410;BME280;41279;43.546;16.426;2023-04-07T10:13:07;52458.38;;;-146.77;47.66
55410;BME280;41279;43.546;16.426;2023-04-07T10:15:33;52452.34;;;-146.77;44.86
55410;BME280;41279;43.546;16.426;2023-04-07T10:17:59;52478.38;;;-146.77;45.41
55410;BME280;41279;43.546;16.426;2023-04-07T10:20:25;52460.38;;;-146.77;45.70
55410;BME280;41279;43.546;16.426;2023-04-07T10:22:54;52450.34;;;-146.77;44.27
55410;BME280;41279;43.546;16.426;2023-04-07T10:25:24;52438.34;;;-146.77;43.77
55410;BME280;41279;43.546;16.426;2023-04-07T10:27:54;52472.38;;;-146.77;42.22
55410;BME280;41279;43.546;16.426;2023-04-07T10:30:29;52466.38;;;-146.77;42.36
55410;BME280;41279;43.546;16.426;2023-04-07T10:32:54;52462.38;;;-146.77;41.94
55410;BME280;41279;43.546;16.426;2023-04-07T10:35:21;52516.41;;;-146.77;43.70
55410;BME280;41279;43.546;16.426;2023-04-07T10:38:09;52490.41;;;-146.77;45.21
55410;BME280;41279;43.546;16.426;2023-04-07T10:40:36;52490.41;;;-146.77;48.23
55410;BME280;41279;43.546;16.426;2023-04-07T10:43:02;52470.38;;;-146.77;46.92
55410;BME280;41279;43.546;16.426;2023-04-07T10:48:18;52454.34;;;-146.77;48.54
55410;BME280;41279;43.546;16.426;2023-04-07T10:50:45;52450.34;;;-146.77;48.78
55410;BME280;41279;43.546;16.426;2023-04-07T10:53:18;52458.38;;;-146.77;48.88
55410;BME280;41279;43.546;16.426;2023-04-07T10:55:44;52440.34;;;-146.77;54.02
55410;BME280;41279;43.546;16.426;2023-04-07T11:03:23;52440.34;;;-146.77;53.93
55410;BME280;41279;43.546;16.426;2023-04-07T11:05:48;52456.38;;;-146.77;51.07
55410;BME280;41279;43.546;16.426;2023-04-07T11:08:14;52458.38;;;-146.77;51.98
55410;BME280;41279;43.546;16.426;2023-04-07T11:10:46;52440.34;;;-146.77;56.35
55410;BME280;41279;43.546;16.426;2023-04-07T11:13:12;52432.34;;;-146.77;55.57
55410;BME280;41279;43.546;16.426;2023-04-07T11:15:37;52434.34;;;-146.77;54.74
55410;BME280;41279;43.546;16.426;2023-04-07T11:23:12;52442.34;;;-146.77;55.83
55410;BME280;41279;43.546;16.426;2023-04-07T11:25:38;52436.34;;;-146.77;57.30
55410;BME280;41279;43.546;16.426;2023-04-07T11:28:09;52458.38;;;-146.77;55.59
55410;BME280;41279;43.546;16.426;2023-04-07T11:30:35;52438.34;;;-146.77;55.76
55410;BME280;41279;43.546;16.426;2023-04-07T11:33:00;52450.34;;;-146.77;56.10
55410;BME280;41279;43.546;16.426;2023-04-07T11:35:26;52438.34;;;-146.77;54.69
55410;BME280;41279;43.546;16.426;2023-04-07T11:37:58;52430.34;;;-146.77;54.87
55410;BME280;41279;43.546;16.426;2023-04-07T11:40:32;52454.34;;;-146.77;53.13
55410;BME280;41279;43.546;16.426;2023-04-07T11:42:58;52458.38;;;-146.77;50.07
55410;BME280;41279;43.546;16.426;2023-04-07T11:45:24;52456.38;;;-146.77;53.03
55410;BME280;41279;43.546;16.426;2023-04-07T11:47:49;52442.34;;;-146.77;52.75
55410;BME280;41279;43.546;16.426;2023-04-07T11:50:15;52442.34;;;-146.77;52.87
55410;BME280;41279;43.546;16.426;2023-04-07T11:52:47;52436.34;;;-146.77;52.66
55410;BME280;41279;43.546;16.426;2023-04-07T11:55:19;52428.34;;;-146.77;51.37
55410;BME280;41279;43.546;16.426;2023-04-07T11:57:46;52456.38;;;-146.77;53.58
55410;BME280;41279;43.546;16.426;2023-04-07T12:00:13;52434.34;;;-146.77;55.62
55410;BME280;41279;43.546;16.426;2023-04-07T12:02:40;52454.34;;;-146.77;54.83
55410;BME280;41279;43.546;16.426;2023-04-07T12:05:06;52446.34;;;-146.77;54.68
55410;BME280;41279;43.546;16.426;2023-04-07T12:07:32;52470.38;;;-146.77;60.50
55410;BME280;41279;43.546;16.426;2023-04-07T12:09:57;52456.38;;;-146.77;64.51
55410;BME280;41279;43.546;16.426;2023-04-07T12:12:29;52454.34;;;-146.77;65.93
55410;BME280;41279;43.546;16.426;2023-04-07T12:14:57;52488.41;;;-146.77;67.68
55410;BME280;41279;43.546;16.426;2023-04-07T12:17:24;52468.38;;;-146.77;65.34
55410;BME280;41279;43.546;16.426;2023-04-07T12:19:50;52476.38;;;-146.77;69.10
55410;BME280;41279;43.546;16.426;2023-04-07T12:22:16;52498.41;;;-146.77;72.12
55410;BME280;41279;43.546;16.426;2023-04-07T12:24:42;52510.41;;;-146.77;74.90
55410;BME280;41279;43.546;16.426;2023-04-07T12:27:07;52516.41;;;-146.77;75.99
55410;BME280;41279;43.546;16.426;2023-04-07T12:29:34;52504.41;;;-146.77;77.48
55410;BME280;41279;43.546;16.426;2023-04-07T12:32:01;52454.34;;;-146.77;72.45
55410;BME280;41279;43.546;16.426;2023-04-07T12:34:27;52494.41;;;-146.77;78.48
55410;BME280;41279;43.546;16.426;2023-04-07T12:36:52;52508.41;;;-146.77;75.63
55410;BME280;41279;43.546;16.426;2023-04-07T12:39:18;52574.47;;;-146.77;86.17
55410;BME280;41279;43.546;16.426;2023-04-07T12:41:44;52568.47;;;-146.77;85.04
55410;BME280;41279;43.546;16.426;2023-04-07T12:44:14;52508.41;;;-146.77;79.50
55410;BME280;41279;43.546;16.426;2023-04-07T12:46:40;52550.47;;;-146.77;79.78
55410;BME280;41279;43.546;16.426;2023-04-07T12:49:07;52498.41;;;-146.77;78.67
55410;BME280;41279;43.546;16.426;2023-04-07T12:51:33;52550.47;;;-146.77;80.98
55410;BME280;41279;43.546;16.426;2023-04-07T12:53:58;52568.47;;;-146.77;84.08
55410;BME280;41279;43.546;16.426;2023-04-07T12:56:27;52576.50;;;-146.77;86.92
55410;BME280;41279;43.546;16.426;2023-04-07T12:58:53;52542.44;;;-146.77;83.98
55410;BME280;41279;43.546;16.426;2023-04-07T13:01:19;52486.41;;;-146.77;77.19